createdAt,value
2017-07-16T00:00:02.191Z,790.32
2017-07-16T00:00:06.043Z,790.34
2017-07-16T00:00:10.118Z,790.33
2017-07-16T00:00:13.952Z,790.28
2017-07-16T00:00:18.299Z,790.34
2017-07-16T00:00:22.216Z,790.36
2017-07-16T00:00:26.544Z,790.32
2017-07-16T00:00:30.488Z,790.34
2017-07-16T00:00:34.319Z,790.33
2017-07-16T00:00:38.376Z,790.32
2017-07-16T00:00:42.461Z,790.34
2017-07-16T00:00:46.809Z,790.36
2017-07-16T00:00:50.884Z,790.33
2017-07-16T00:00:54.838Z,790.32
2017-07-16T00:00:59.034Z,790.28
2017-07-16T00:01:02.851Z,790.28
2017-07-16T00:01:06.934Z,790.3
2017-07-16T00:01:11.130Z,790.34
2017-07-16T00:01:15.348Z,790.35
2017-07-16T00:01:19.684Z,790.34
2017-07-16T00:01:23.887Z,790.35
2017-07-16T00:01:27.975Z,790.36
2017-07-16T00:01:32.198Z,790.31
2017-07-16T00:01:36.163Z,790.35
2017-07-16T00:01:40.370Z,790.31
2017-07-16T00:01:44.582Z,790.34
2017-07-16T00:01:48.815Z,790.34
2017-07-16T00:01:52.889Z,790.37
2017-07-16T00:01:56.850Z,790.36
2017-07-16T00:02:00.849Z,790.37
2017-07-16T00:02:04.704Z,790.35
2017-07-16T00:02:08.674Z,790.36
2017-07-16T00:02:12.877Z,790.31
2017-07-16T00:02:16.941Z,790.35
2017-07-16T00:02:20.900Z,790.33
2017-07-16T00:02:24.970Z,790.35
2017-07-16T00:02:29.183Z,790.37
2017-07-16T00:02:33.531Z,790.36
2017-07-16T00:02:37.487Z,790.35
2017-07-16T00:02:41.427Z,790.34
2017-07-16T00:02:45.630Z,790.36
2017-07-16T00:02:49.825Z,790.34
2017-07-16T00:02:54.151Z,790.37
2017-07-16T00:02:58.250Z,790.32
2017-07-16T00:03:02.224Z,790.35
2017-07-16T00:03:05.915Z,790.35
2017-07-16T00:03:09.870Z,790.36
2017-07-16T00:03:13.684Z,790.37
2017-07-16T00:03:17.755Z,790.36
2017-07-16T00:03:21.978Z,790.38
2017-07-16T00:03:26.051Z,790.35
2017-07-16T00:03:30.265Z,790.38
2017-07-16T00:03:34.341Z,790.36
2017-07-16T00:03:38.298Z,790.38
2017-07-16T00:03:42.510Z,790.38
2017-07-16T00:03:46.858Z,790.35
2017-07-16T00:03:51.076Z,790.39
2017-07-16T00:03:55.157Z,790.4
2017-07-16T00:03:59.229Z,790.36
2017-07-16T00:04:03.367Z,790.38
2017-07-16T00:04:07.206Z,790.38
2017-07-16T00:04:11.152Z,790.39
2017-07-16T00:04:15.364Z,790.38
2017-07-16T00:04:19.442Z,790.35
2017-07-16T00:04:23.266Z,790.39
2017-07-16T00:04:27.725Z,790.37
2017-07-16T00:04:32.172Z,790.36
2017-07-16T00:04:36.010Z,790.37
2017-07-16T00:04:40.088Z,790.37
2017-07-16T00:04:44.430Z,790.35
2017-07-16T00:04:48.628Z,790.37
2017-07-16T00:04:52.690Z,790.37
2017-07-16T00:04:57.015Z,790.37
2017-07-16T00:05:01.108Z,790.37
2017-07-16T00:05:04.919Z,790.34
2017-07-16T00:05:09.041Z,790.37
2017-07-16T00:05:13.247Z,790.36
2017-07-16T00:05:17.339Z,790.36
2017-07-16T00:05:21.291Z,790.37
2017-07-16T00:05:25.375Z,790.4
2017-07-16T00:05:29.318Z,790.37
2017-07-16T00:05:33.404Z,790.37
2017-07-16T00:05:37.092Z,790.37
2017-07-16T00:05:41.299Z,790.38
2017-07-16T00:05:45.623Z,790.39
2017-07-16T00:05:49.585Z,790.38
2017-07-16T00:05:53.555Z,790.37
2017-07-16T00:05:57.624Z,790.38
2017-07-16T00:06:01.576Z,790.36
2017-07-16T00:06:05.531Z,790.33
2017-07-16T00:06:09.613Z,790.34
2017-07-16T00:06:13.557Z,790.39
2017-07-16T00:06:17.898Z,790.37
2017-07-16T00:06:22.107Z,790.39
2017-07-16T00:06:26.200Z,790.41
2017-07-16T00:06:30.291Z,790.39
2017-07-16T00:06:34.364Z,790.35
2017-07-16T00:06:38.439Z,790.4
2017-07-16T00:06:42.394Z,790.37
2017-07-16T00:06:46.746Z,790.37
2017-07-16T00:06:50.949Z,790.38
2017-07-16T00:06:55.062Z,790.39
2017-07-16T00:06:59.402Z,790.37
2017-07-16T00:07:03.647Z,790.39
2017-07-16T00:07:07.721Z,790.37
2017-07-16T00:07:11.931Z,790.37
2017-07-16T00:07:15.993Z,790.37
2017-07-16T00:07:19.945Z,790.39
2017-07-16T00:07:24.030Z,790.4
2017-07-16T00:07:28.246Z,790.38
2017-07-16T00:07:32.583Z,790.38
2017-07-16T00:07:36.659Z,790.4
2017-07-16T00:07:40.601Z,790.4
2017-07-16T00:07:44.565Z,790.35
2017-07-16T00:07:48.770Z,790.35
2017-07-16T00:07:52.858Z,790.37
2017-07-16T00:07:57.173Z,790.37
2017-07-16T00:08:01.244Z,790.38
2017-07-16T00:08:05.195Z,790.4
2017-07-16T00:08:09.434Z,790.39
2017-07-16T00:08:13.779Z,790.37
2017-07-16T00:08:17.744Z,790.39
2017-07-16T00:08:21.978Z,790.38
2017-07-16T00:08:26.193Z,790.37
2017-07-16T00:08:30.278Z,790.4
2017-07-16T00:08:34.345Z,790.37
2017-07-16T00:08:38.189Z,790.41
2017-07-16T00:08:42.018Z,790.39
2017-07-16T00:08:46.234Z,790.35
2017-07-16T00:08:50.191Z,790.39
2017-07-16T00:08:54.136Z,790.38
2017-07-16T00:08:58.453Z,790.39
2017-07-16T00:09:02.521Z,790.38
2017-07-16T00:09:06.486Z,790.41
2017-07-16T00:09:10.314Z,790.35
2017-07-16T00:09:14.518Z,790.38
2017-07-16T00:09:18.343Z,790.38
2017-07-16T00:09:22.682Z,790.41
2017-07-16T00:09:26.633Z,790.4
2017-07-16T00:09:30.717Z,790.41
2017-07-16T00:09:34.928Z,790.4
2017-07-16T00:09:39.122Z,790.41
2017-07-16T00:09:43.446Z,790.39
2017-07-16T00:09:47.657Z,790.4
2017-07-16T00:09:51.861Z,790.38
2017-07-16T00:09:55.681Z,790.39
2017-07-16T00:09:59.874Z,790.38
2017-07-16T00:10:03.832Z,790.4
2017-07-16T00:10:07.909Z,790.41
2017-07-16T00:10:11.718Z,790.39
2017-07-16T00:10:16.059Z,790.4
2017-07-16T00:10:20.512Z,790.35
2017-07-16T00:10:24.842Z,790.37
2017-07-16T00:10:28.919Z,790.36
2017-07-16T00:10:32.857Z,790.34
2017-07-16T00:10:36.680Z,790.39
2017-07-16T00:10:40.740Z,790.39
2017-07-16T00:10:44.695Z,790.39
2017-07-16T00:10:48.915Z,790.4
2017-07-16T00:10:52.880Z,790.42
2017-07-16T00:10:57.073Z,790.41
2017-07-16T00:11:00.897Z,790.37
2017-07-16T00:11:04.721Z,790.39
2017-07-16T00:11:08.668Z,790.41
2017-07-16T00:11:12.875Z,790.44
2017-07-16T00:11:16.952Z,790.41
2017-07-16T00:11:21.021Z,790.42
2017-07-16T00:11:25.219Z,790.42
2017-07-16T00:11:29.447Z,790.42
2017-07-16T00:11:33.806Z,790.44
2017-07-16T00:11:37.632Z,790.44
2017-07-16T00:11:41.841Z,790.41
2017-07-16T00:11:45.930Z,790.4
2017-07-16T00:11:49.887Z,790.41
2017-07-16T00:11:54.091Z,790.42
2017-07-16T00:11:58.180Z,790.43
2017-07-16T00:12:02.102Z,790.4
2017-07-16T00:12:05.800Z,790.41
2017-07-16T00:12:09.733Z,790.42
2017-07-16T00:12:14.202Z,790.42
2017-07-16T00:12:18.531Z,790.4
2017-07-16T00:12:22.610Z,790.46
2017-07-16T00:12:26.571Z,790.44
2017-07-16T00:12:30.526Z,790.36
2017-07-16T00:12:34.594Z,790.43
2017-07-16T00:12:38.286Z,790.42
2017-07-16T00:12:42.104Z,790.44
2017-07-16T00:12:46.432Z,790.45
2017-07-16T00:12:50.270Z,790.44
2017-07-16T00:12:54.499Z,790.38
2017-07-16T00:12:58.719Z,790.38
2017-07-16T00:13:02.671Z,790.38
2017-07-16T00:13:06.618Z,790.38
2017-07-16T00:13:10.450Z,790.43
2017-07-16T00:13:14.532Z,790.43
2017-07-16T00:13:18.612Z,790.43
2017-07-16T00:13:22.948Z,790.41
2017-07-16T00:13:27.176Z,790.41
2017-07-16T00:13:31.256Z,790.43
2017-07-16T00:13:35.063Z,790.42
2017-07-16T00:13:38.884Z,790.44
2017-07-16T00:13:43.230Z,790.4
2017-07-16T00:13:47.441Z,790.4
2017-07-16T00:13:51.520Z,790.44
2017-07-16T00:13:55.508Z,790.41
2017-07-16T00:13:59.951Z,790.44
2017-07-16T00:14:04.266Z,790.44
2017-07-16T00:14:08.209Z,790.43
2017-07-16T00:14:12.030Z,790.44
2017-07-16T00:14:16.115Z,790.4
2017-07-16T00:14:19.822Z,790.44
2017-07-16T00:14:23.790Z,790.4
2017-07-16T00:14:27.989Z,790.38
2017-07-16T00:14:32.315Z,790.41
2017-07-16T00:14:36.268Z,790.42
2017-07-16T00:14:40.614Z,790.43
2017-07-16T00:14:44.564Z,790.42
2017-07-16T00:14:48.773Z,790.43
2017-07-16T00:14:52.842Z,790.44
2017-07-16T00:14:57.158Z,790.42
2017-07-16T00:15:01.106Z,790.45
2017-07-16T00:15:05.169Z,790.44
2017-07-16T00:15:09.380Z,790.44
2017-07-16T00:15:13.728Z,790.42
2017-07-16T00:15:17.812Z,790.46
2017-07-16T00:15:21.757Z,790.45
2017-07-16T00:15:25.693Z,790.44
2017-07-16T00:15:29.905Z,790.43
2017-07-16T00:15:33.861Z,790.41
2017-07-16T00:15:37.563Z,790.4
2017-07-16T00:15:41.653Z,790.41
2017-07-16T00:15:45.982Z,790.43
2017-07-16T00:15:49.806Z,790.4
2017-07-16T00:15:54.150Z,790.41
2017-07-16T00:15:58.363Z,790.45
2017-07-16T00:16:02.699Z,790.42
2017-07-16T00:16:06.785Z,790.42
2017-07-16T00:16:10.613Z,790.44
2017-07-16T00:16:14.575Z,790.43
2017-07-16T00:16:18.534Z,790.42
2017-07-16T00:16:22.466Z,790.43
2017-07-16T00:16:26.414Z,790.46
2017-07-16T00:16:30.491Z,790.44
2017-07-16T00:16:34.815Z,790.42
2017-07-16T00:16:38.645Z,790.39
2017-07-16T00:16:42.982Z,790.43
2017-07-16T00:16:47.177Z,790.45
2017-07-16T00:16:51.370Z,790.44
2017-07-16T00:16:55.461Z,790.46
2017-07-16T00:16:59.790Z,790.43
2017-07-16T00:17:03.862Z,790.44
2017-07-16T00:17:08.166Z,790.47
2017-07-16T00:17:12.237Z,790.42
2017-07-16T00:17:16.434Z,790.41
2017-07-16T00:17:20.390Z,790.41
2017-07-16T00:17:24.599Z,790.42
2017-07-16T00:17:28.444Z,790.42
2017-07-16T00:17:32.658Z,790.42
2017-07-16T00:17:36.490Z,790.41
2017-07-16T00:17:40.328Z,790.41
2017-07-16T00:17:44.528Z,790.42
2017-07-16T00:17:48.486Z,790.41
2017-07-16T00:17:52.724Z,790.44
2017-07-16T00:17:56.638Z,790.43
2017-07-16T00:18:00.713Z,790.42
2017-07-16T00:18:04.791Z,790.38
2017-07-16T00:18:08.628Z,790.38
2017-07-16T00:18:12.831Z,790.44
2017-07-16T00:18:16.922Z,790.37
2017-07-16T00:18:21.012Z,790.39
2017-07-16T00:18:24.975Z,790.37
2017-07-16T00:18:29.060Z,790.43
2017-07-16T00:18:33.406Z,790.39
2017-07-16T00:18:37.358Z,790.42
2017-07-16T00:18:41.311Z,790.41
2017-07-16T00:18:45.402Z,790.35
2017-07-16T00:18:49.601Z,790.42
2017-07-16T00:18:53.554Z,790.41
2017-07-16T00:18:57.889Z,790.43
2017-07-16T00:19:02.296Z,790.43
2017-07-16T00:19:06.383Z,790.44
2017-07-16T00:19:10.449Z,790.42
2017-07-16T00:19:14.790Z,790.42
2017-07-16T00:19:19.248Z,790.4
2017-07-16T00:19:23.439Z,790.41
2017-07-16T00:19:27.636Z,790.42
2017-07-16T00:19:31.836Z,790.44
2017-07-16T00:19:35.788Z,790.4
2017-07-16T00:19:39.626Z,790.44
2017-07-16T00:19:43.711Z,790.42
2017-07-16T00:19:47.667Z,790.45
2017-07-16T00:19:51.867Z,790.41
2017-07-16T00:19:55.698Z,790.43
2017-07-16T00:19:59.901Z,790.41
2017-07-16T00:20:03.907Z,790.42
2017-07-16T00:20:07.858Z,790.41
2017-07-16T00:20:11.812Z,790.43
2017-07-16T00:20:16.141Z,790.43
2017-07-16T00:20:20.612Z,790.46
2017-07-16T00:20:24.808Z,790.41
2017-07-16T00:20:29.251Z,790.42
2017-07-16T00:20:33.726Z,790.42
2017-07-16T00:20:37.679Z,790.42
2017-07-16T00:20:41.886Z,790.42
2017-07-16T00:20:46.254Z,790.42
2017-07-16T00:20:50.201Z,790.43
2017-07-16T00:20:53.885Z,790.45
2017-07-16T00:20:57.832Z,790.37
2017-07-16T00:21:02.217Z,790.38
2017-07-16T00:21:06.166Z,790.39
2017-07-16T00:21:10.122Z,790.42
2017-07-16T00:21:14.371Z,790.43
2017-07-16T00:21:18.466Z,790.44
2017-07-16T00:21:22.443Z,790.42
2017-07-16T00:21:26.270Z,790.43
2017-07-16T00:21:30.219Z,790.45
2017-07-16T00:21:34.045Z,790.45
2017-07-16T00:21:38.105Z,790.39
2017-07-16T00:21:42.315Z,790.41
2017-07-16T00:21:46.393Z,790.42
2017-07-16T00:21:50.215Z,790.45
2017-07-16T00:21:54.187Z,790.43
2017-07-16T00:21:58.403Z,790.41
2017-07-16T00:22:02.480Z,790.42
2017-07-16T00:22:06.571Z,790.43
2017-07-16T00:22:10.697Z,790.44
2017-07-16T00:22:14.395Z,790.44
2017-07-16T00:22:18.338Z,790.4
2017-07-16T00:22:22.035Z,790.41
2017-07-16T00:22:25.727Z,790.44
2017-07-16T00:22:29.417Z,790.43
2017-07-16T00:22:33.125Z,790.43
2017-07-16T00:22:36.819Z,790.44
2017-07-16T00:22:40.526Z,790.39
2017-07-16T00:22:44.229Z,790.36
2017-07-16T00:22:47.930Z,790.39
2017-07-16T00:22:51.627Z,790.37
2017-07-16T00:22:55.447Z,790.4
2017-07-16T00:22:59.395Z,790.38
2017-07-16T00:23:03.401Z,790.41
2017-07-16T00:23:07.344Z,790.43
2017-07-16T00:23:11.034Z,790.44
2017-07-16T00:23:14.730Z,790.41
2017-07-16T00:23:18.428Z,790.42
2017-07-16T00:23:22.119Z,790.41
2017-07-16T00:23:25.827Z,790.41
2017-07-16T00:23:29.525Z,790.42
2017-07-16T00:23:33.219Z,790.43
2017-07-16T00:23:36.913Z,790.42
2017-07-16T00:23:40.624Z,790.43
2017-07-16T00:23:44.330Z,790.45
2017-07-16T00:23:48.034Z,790.43
2017-07-16T00:23:51.858Z,790.4
2017-07-16T00:23:55.805Z,790.46
2017-07-16T00:23:59.509Z,790.41
2017-07-16T00:24:03.347Z,790.44
2017-07-16T00:24:07.150Z,790.42
2017-07-16T00:24:10.964Z,790.38
2017-07-16T00:24:14.667Z,790.43
2017-07-16T00:24:18.364Z,790.42
2017-07-16T00:24:22.184Z,790.44
2017-07-16T00:24:26.265Z,790.43
2017-07-16T00:24:30.497Z,790.4
2017-07-16T00:24:34.452Z,790.43
2017-07-16T00:24:38.409Z,790.4
2017-07-16T00:24:42.470Z,790.42
2017-07-16T00:24:46.825Z,790.44
2017-07-16T00:24:50.916Z,790.42
2017-07-16T00:24:55.117Z,790.44
2017-07-16T00:24:59.206Z,790.42
2017-07-16T00:25:03.414Z,790.44
2017-07-16T00:25:07.374Z,790.44
2017-07-16T00:25:11.448Z,790.42
2017-07-16T00:25:15.677Z,790.4
2017-07-16T00:25:19.602Z,790.42
2017-07-16T00:25:23.672Z,790.41
2017-07-16T00:25:28.016Z,790.43
2017-07-16T00:25:32.218Z,790.41
2017-07-16T00:25:36.294Z,790.42
2017-07-16T00:25:40.246Z,790.41
2017-07-16T00:25:44.328Z,790.39
2017-07-16T00:25:48.276Z,790.38
2017-07-16T00:25:52.490Z,790.41
2017-07-16T00:25:56.564Z,790.36
2017-07-16T00:26:00.626Z,790.36
2017-07-16T00:26:04.698Z,790.36
2017-07-16T00:26:08.642Z,790.35
2017-07-16T00:26:12.463Z,790.35
2017-07-16T00:26:16.531Z,790.36
2017-07-16T00:26:20.738Z,790.34
2017-07-16T00:26:24.699Z,790.42
2017-07-16T00:26:29.040Z,790.37
2017-07-16T00:26:33.119Z,790.4
2017-07-16T00:26:37.076Z,790.41
2017-07-16T00:26:41.071Z,790.41
2017-07-16T00:26:45.400Z,790.4
2017-07-16T00:26:49.341Z,790.42
2017-07-16T00:26:53.037Z,790.4
2017-07-16T00:26:56.737Z,790.4
2017-07-16T00:27:00.817Z,790.4
2017-07-16T00:27:04.777Z,790.43
2017-07-16T00:27:08.851Z,790.4
2017-07-16T00:27:12.953Z,790.43
2017-07-16T00:27:17.274Z,790.36
2017-07-16T00:27:21.369Z,790.4
2017-07-16T00:27:25.316Z,790.4
2017-07-16T00:27:29.522Z,790.42
2017-07-16T00:27:33.594Z,790.43
2017-07-16T00:27:37.559Z,790.39
2017-07-16T00:27:41.507Z,790.41
2017-07-16T00:27:45.832Z,790.43
2017-07-16T00:27:49.911Z,790.4
2017-07-16T00:27:54.244Z,790.39
2017-07-16T00:27:58.193Z,790.42
2017-07-16T00:28:02.699Z,790.43
2017-07-16T00:28:06.923Z,790.36
2017-07-16T00:28:11.002Z,790.42
2017-07-16T00:28:15.212Z,790.41
2017-07-16T00:28:19.413Z,790.4
2017-07-16T00:28:23.511Z,790.43
2017-07-16T00:28:27.718Z,790.41
2017-07-16T00:28:31.912Z,790.4
2017-07-16T00:28:35.863Z,790.38
2017-07-16T00:28:39.816Z,790.43
2017-07-16T00:28:43.642Z,790.37
2017-07-16T00:28:47.728Z,790.39
2017-07-16T00:28:51.679Z,790.4
2017-07-16T00:28:56.000Z,790.4
2017-07-16T00:29:00.199Z,790.4
2017-07-16T00:29:04.273Z,790.37
2017-07-16T00:29:08.336Z,790.34
2017-07-16T00:29:12.541Z,790.35
2017-07-16T00:29:16.609Z,790.37
2017-07-16T00:29:20.434Z,790.36
2017-07-16T00:29:24.514Z,790.42
2017-07-16T00:29:28.471Z,790.42
2017-07-16T00:29:32.306Z,790.41
2017-07-16T00:29:36.310Z,790.33
2017-07-16T00:29:40.250Z,790.42
2017-07-16T00:29:44.586Z,790.43
2017-07-16T00:29:48.543Z,790.42
2017-07-16T00:29:52.497Z,790.43
2017-07-16T00:29:56.598Z,790.4
2017-07-16T00:30:00.679Z,790.41
2017-07-16T00:30:04.724Z,790.4
2017-07-16T00:30:08.778Z,790.42
2017-07-16T00:30:12.851Z,790.43
2017-07-16T00:30:16.677Z,790.44
2017-07-16T00:30:20.764Z,790.42
2017-07-16T00:30:24.843Z,790.41
2017-07-16T00:30:28.818Z,790.41
2017-07-16T00:30:32.649Z,790.4
2017-07-16T00:30:36.607Z,790.44
2017-07-16T00:30:40.690Z,790.43
2017-07-16T00:30:44.667Z,790.4
2017-07-16T00:30:48.909Z,790.42
2017-07-16T00:30:53.107Z,790.41
2017-07-16T00:30:57.308Z,790.44
2017-07-16T00:31:01.405Z,790.36
2017-07-16T00:31:05.565Z,790.41
2017-07-16T00:31:09.526Z,790.42
2017-07-16T00:31:13.589Z,790.41
2017-07-16T00:31:17.913Z,790.42
2017-07-16T00:31:22.248Z,790.41
2017-07-16T00:31:26.332Z,790.46
2017-07-16T00:31:30.531Z,790.46
2017-07-16T00:31:34.979Z,790.41
2017-07-16T00:31:39.056Z,790.45
2017-07-16T00:31:43.384Z,790.42
2017-07-16T00:31:47.730Z,790.42
2017-07-16T00:31:51.811Z,790.42
2017-07-16T00:31:56.014Z,790.46
2017-07-16T00:31:59.851Z,790.42
2017-07-16T00:32:04.063Z,790.37
2017-07-16T00:32:07.788Z,790.43
2017-07-16T00:32:12.350Z,790.43
2017-07-16T00:32:16.549Z,790.45
2017-07-16T00:32:20.751Z,790.42
2017-07-16T00:32:24.837Z,790.42
2017-07-16T00:32:28.920Z,790.42
2017-07-16T00:32:33.138Z,790.45
2017-07-16T00:32:37.085Z,790.43
2017-07-16T00:32:41.030Z,790.43
2017-07-16T00:32:45.266Z,790.44
2017-07-16T00:32:49.342Z,790.45
2017-07-16T00:32:53.678Z,790.45
2017-07-16T00:32:57.886Z,790.39
2017-07-16T00:33:02.078Z,790.43
2017-07-16T00:33:06.275Z,790.46
2017-07-16T00:33:10.362Z,790.42
2017-07-16T00:33:14.445Z,790.43
2017-07-16T00:33:18.786Z,790.44
2017-07-16T00:33:23.001Z,790.44
2017-07-16T00:33:26.835Z,790.43
2017-07-16T00:33:30.792Z,790.45
2017-07-16T00:33:34.988Z,790.39
2017-07-16T00:33:38.802Z,790.4
2017-07-16T00:33:42.891Z,790.45
2017-07-16T00:33:47.124Z,790.43
2017-07-16T00:33:51.195Z,790.45
2017-07-16T00:33:55.283Z,790.42
2017-07-16T00:33:59.116Z,790.47
2017-07-16T00:34:03.564Z,790.44
2017-07-16T00:34:07.638Z,790.44
2017-07-16T00:34:11.453Z,790.44
2017-07-16T00:34:15.656Z,790.41
2017-07-16T00:34:19.729Z,790.45
2017-07-16T00:34:23.696Z,790.41
2017-07-16T00:34:27.798Z,790.41
2017-07-16T00:34:31.881Z,790.43
2017-07-16T00:34:35.959Z,790.44
2017-07-16T00:34:40.045Z,790.41
2017-07-16T00:34:44.123Z,790.4
2017-07-16T00:34:48.206Z,790.42
2017-07-16T00:34:52.418Z,790.42
2017-07-16T00:34:56.611Z,790.42
2017-07-16T00:35:00.815Z,790.44
2017-07-16T00:35:04.629Z,790.45
2017-07-16T00:35:08.570Z,790.41
2017-07-16T00:35:12.659Z,790.43
2017-07-16T00:35:16.617Z,790.36
2017-07-16T00:35:20.569Z,790.44
2017-07-16T00:35:24.662Z,790.39
2017-07-16T00:35:28.869Z,790.4
2017-07-16T00:35:33.081Z,790.38
2017-07-16T00:35:37.186Z,790.38
2017-07-16T00:35:41.529Z,790.41
2017-07-16T00:35:45.724Z,790.37
2017-07-16T00:35:49.946Z,790.35
2017-07-16T00:35:53.882Z,790.38
2017-07-16T00:35:58.222Z,790.41
2017-07-16T00:36:02.425Z,790.41
2017-07-16T00:36:06.664Z,790.44
2017-07-16T00:36:10.491Z,790.46
2017-07-16T00:36:14.563Z,790.42
2017-07-16T00:36:18.761Z,790.41
2017-07-16T00:36:22.577Z,790.42
2017-07-16T00:36:26.782Z,790.41
2017-07-16T00:36:30.993Z,790.42
2017-07-16T00:36:34.942Z,790.38
2017-07-16T00:36:38.893Z,790.42
2017-07-16T00:36:43.100Z,790.42
2017-07-16T00:36:47.566Z,790.41
2017-07-16T00:36:51.643Z,790.42
2017-07-16T00:36:55.715Z,790.4
2017-07-16T00:36:59.927Z,790.42
2017-07-16T00:37:03.969Z,790.44
2017-07-16T00:37:08.167Z,790.42
2017-07-16T00:37:11.993Z,790.38
2017-07-16T00:37:16.221Z,790.41
2017-07-16T00:37:20.038Z,790.41
2017-07-16T00:37:23.739Z,790.41
2017-07-16T00:37:27.944Z,790.41
2017-07-16T00:37:32.150Z,790.41
2017-07-16T00:37:36.107Z,790.41
2017-07-16T00:37:40.048Z,790.39
2017-07-16T00:37:44.531Z,790.41
2017-07-16T00:37:48.626Z,790.43
2017-07-16T00:37:52.692Z,790.4
2017-07-16T00:37:57.018Z,790.41
2017-07-16T00:38:01.347Z,790.4
2017-07-16T00:38:05.553Z,790.42
2017-07-16T00:38:09.499Z,790.39
2017-07-16T00:38:13.976Z,790.42
2017-07-16T00:38:17.901Z,790.42
2017-07-16T00:38:22.095Z,790.4
2017-07-16T00:38:25.908Z,790.44
2017-07-16T00:38:30.236Z,790.39
2017-07-16T00:38:34.060Z,790.42
2017-07-16T00:38:38.037Z,790.42
2017-07-16T00:38:42.256Z,790.42
2017-07-16T00:38:46.459Z,790.44
2017-07-16T00:38:50.774Z,790.44
2017-07-16T00:38:54.979Z,790.42
2017-07-16T00:38:58.925Z,790.44
2017-07-16T00:39:03.054Z,790.41
2017-07-16T00:39:07.002Z,790.41
2017-07-16T00:39:11.202Z,790.43
2017-07-16T00:39:15.411Z,790.43
2017-07-16T00:39:19.747Z,790.43
2017-07-16T00:39:23.841Z,790.4
2017-07-16T00:39:28.038Z,790.41
2017-07-16T00:39:32.243Z,790.43
2017-07-16T00:39:36.183Z,790.4
2017-07-16T00:39:40.139Z,790.4
2017-07-16T00:39:44.334Z,790.42
2017-07-16T00:39:48.674Z,790.38
2017-07-16T00:39:52.778Z,790.37
2017-07-16T00:39:56.870Z,790.4
2017-07-16T00:40:00.816Z,790.4
2017-07-16T00:40:04.800Z,790.39
2017-07-16T00:40:09.128Z,790.39
2017-07-16T00:40:13.470Z,790.4
2017-07-16T00:40:17.691Z,790.43
2017-07-16T00:40:22.155Z,790.41
2017-07-16T00:40:26.354Z,790.43
2017-07-16T00:40:30.697Z,790.42
2017-07-16T00:40:34.903Z,790.4
2017-07-16T00:40:38.861Z,790.4
2017-07-16T00:40:42.828Z,790.37
2017-07-16T00:40:46.539Z,790.4
2017-07-16T00:40:50.505Z,790.39
2017-07-16T00:40:54.848Z,790.4
2017-07-16T00:40:58.921Z,790.41
2017-07-16T00:41:03.134Z,790.42
2017-07-16T00:41:06.956Z,790.38
2017-07-16T00:41:11.295Z,790.43
2017-07-16T00:41:15.373Z,790.42
2017-07-16T00:41:19.585Z,790.39
2017-07-16T00:41:23.929Z,790.43
2017-07-16T00:41:28.267Z,790.42
2017-07-16T00:41:32.463Z,790.41
2017-07-16T00:41:36.412Z,790.38
2017-07-16T00:41:40.345Z,790.36
2017-07-16T00:41:44.437Z,790.38
2017-07-16T00:41:48.388Z,790.43
2017-07-16T00:41:52.200Z,790.42
2017-07-16T00:41:56.528Z,790.42
2017-07-16T00:42:00.866Z,790.41
2017-07-16T00:42:05.210Z,790.44
2017-07-16T00:42:09.028Z,790.37
2017-07-16T00:42:13.121Z,790.39
2017-07-16T00:42:17.336Z,790.37
2017-07-16T00:42:21.547Z,790.4
2017-07-16T00:42:25.509Z,790.41
2017-07-16T00:42:29.598Z,790.37
2017-07-16T00:42:33.679Z,790.44
2017-07-16T00:42:37.630Z,790.43
2017-07-16T00:42:41.831Z,790.44
2017-07-16T00:42:45.924Z,790.45
2017-07-16T00:42:49.611Z,790.47
2017-07-16T00:42:53.817Z,790.43
2017-07-16T00:42:57.902Z,790.42
2017-07-16T00:43:01.711Z,790.45
2017-07-16T00:43:05.530Z,790.44
2017-07-16T00:43:09.237Z,790.44
2017-07-16T00:43:13.052Z,790.41
2017-07-16T00:43:16.877Z,790.46
2017-07-16T00:43:20.955Z,790.44
2017-07-16T00:43:25.160Z,790.43
2017-07-16T00:43:29.234Z,790.44
2017-07-16T00:43:33.428Z,790.45
2017-07-16T00:43:37.259Z,790.39
2017-07-16T00:43:41.353Z,790.45
2017-07-16T00:43:45.690Z,790.45
2017-07-16T00:43:49.773Z,790.43
2017-07-16T00:43:53.737Z,790.44
2017-07-16T00:43:57.994Z,790.44
2017-07-16T00:44:01.940Z,790.45
2017-07-16T00:44:06.016Z,790.45
2017-07-16T00:44:10.099Z,790.45
2017-07-16T00:44:13.918Z,790.46
2017-07-16T00:44:17.731Z,790.46
2017-07-16T00:44:21.803Z,790.41
2017-07-16T00:44:26.003Z,790.42
2017-07-16T00:44:30.203Z,790.41
2017-07-16T00:44:34.283Z,790.43
2017-07-16T00:44:38.098Z,790.44
2017-07-16T00:44:42.312Z,790.43
2017-07-16T00:44:46.515Z,790.44
2017-07-16T00:44:50.709Z,790.44
2017-07-16T00:44:55.055Z,790.45
2017-07-16T00:44:59.375Z,790.42
2017-07-16T00:45:03.339Z,790.43
2017-07-16T00:45:07.421Z,790.43
2017-07-16T00:45:11.740Z,790.43
2017-07-16T00:45:15.450Z,790.45
2017-07-16T00:45:19.400Z,790.44
2017-07-16T00:45:23.489Z,790.45
2017-07-16T00:45:27.823Z,790.47
2017-07-16T00:45:31.890Z,790.43
2017-07-16T00:45:35.837Z,790.46
2017-07-16T00:45:39.664Z,790.44
2017-07-16T00:45:43.488Z,790.45
2017-07-16T00:45:47.692Z,790.48
2017-07-16T00:45:51.642Z,790.41
2017-07-16T00:45:55.865Z,790.41
2017-07-16T00:46:00.191Z,790.44
2017-07-16T00:46:04.395Z,790.42
2017-07-16T00:46:08.466Z,790.47
2017-07-16T00:46:12.403Z,790.45
2017-07-16T00:46:16.476Z,790.46
2017-07-16T00:46:20.301Z,790.42
2017-07-16T00:46:24.135Z,790.45
2017-07-16T00:46:28.467Z,790.4
2017-07-16T00:46:32.421Z,790.43
2017-07-16T00:46:36.501Z,790.43
2017-07-16T00:46:40.358Z,790.44
2017-07-16T00:46:44.824Z,790.45
2017-07-16T00:46:49.032Z,790.45
2017-07-16T00:46:53.355Z,790.45
2017-07-16T00:46:57.577Z,790.46
2017-07-16T00:47:01.647Z,790.45
2017-07-16T00:47:05.801Z,790.45
2017-07-16T00:47:10.131Z,790.42
2017-07-16T00:47:14.077Z,790.43
2017-07-16T00:47:18.160Z,790.4
2017-07-16T00:47:22.378Z,790.38
2017-07-16T00:47:26.318Z,790.45
2017-07-16T00:47:30.390Z,790.44
2017-07-16T00:47:34.465Z,790.45
2017-07-16T00:47:38.541Z,790.45
2017-07-16T00:47:42.623Z,790.45
2017-07-16T00:47:46.699Z,790.43
2017-07-16T00:47:50.913Z,790.43
2017-07-16T00:47:54.991Z,790.39
2017-07-16T00:47:59.205Z,790.38
2017-07-16T00:48:03.563Z,790.44
2017-07-16T00:48:07.534Z,790.41
2017-07-16T00:48:11.629Z,790.42
2017-07-16T00:48:15.837Z,790.43
2017-07-16T00:48:19.932Z,790.43
2017-07-16T00:48:24.129Z,790.45
2017-07-16T00:48:28.081Z,790.44
2017-07-16T00:48:32.028Z,790.48
2017-07-16T00:48:36.238Z,790.45
2017-07-16T00:48:40.303Z,790.46
2017-07-16T00:48:44.510Z,790.45
2017-07-16T00:48:48.741Z,790.45
2017-07-16T00:48:52.693Z,790.46
2017-07-16T00:48:56.786Z,790.45
2017-07-16T00:49:00.854Z,790.44
2017-07-16T00:49:04.808Z,790.45
2017-07-16T00:49:09.150Z,790.46
2017-07-16T00:49:12.971Z,790.48
2017-07-16T00:49:16.674Z,790.46
2017-07-16T00:49:20.772Z,790.45
2017-07-16T00:49:25.098Z,790.45
2017-07-16T00:49:29.425Z,790.47
2017-07-16T00:49:33.631Z,790.48
2017-07-16T00:49:37.562Z,790.48
2017-07-16T00:49:41.645Z,790.45
2017-07-16T00:49:45.598Z,790.45
2017-07-16T00:49:49.614Z,790.43
2017-07-16T00:49:53.575Z,790.45
2017-07-16T00:49:57.782Z,790.46
2017-07-16T00:50:02.007Z,790.45
2017-07-16T00:50:05.840Z,790.39
2017-07-16T00:50:09.913Z,790.46
2017-07-16T00:50:14.122Z,790.47
2017-07-16T00:50:18.466Z,790.41
2017-07-16T00:50:22.676Z,790.43
2017-07-16T00:50:26.754Z,790.48
2017-07-16T00:50:30.963Z,790.45
2017-07-16T00:50:34.916Z,790.44
2017-07-16T00:50:38.741Z,790.44
2017-07-16T00:50:42.572Z,790.47
2017-07-16T00:50:46.897Z,790.47
2017-07-16T00:50:50.969Z,790.44
2017-07-16T00:50:55.304Z,790.42
2017-07-16T00:50:59.388Z,790.44